createdAt,value
2022-08-02T00:01:24.904Z,99.90
2022-08-02T00:04:11.195Z,99.90
2022-08-02T00:06:57.040Z,99.90
2022-08-02T00:09:43.441Z,99.90
2022-08-02T00:12:29.176Z,99.90
2022-08-02T00:15:15.985Z,99.90
2022-08-02T00:18:02.031Z,99.90
2022-08-02T00:20:47.681Z,99.90
2022-08-02T00:23:33.277Z,99.90
2022-08-02T00:26:38.965Z,99.90
2022-08-02T00:29:24.893Z,99.90
2022-08-02T00:32:10.667Z,99.90
2022-08-02T00:34:56.585Z,99.90
2022-08-02T00:37:42.485Z,99.90
2022-08-02T00:40:28.036Z,99.90
2022-08-02T00:43:13.571Z,99.90
2022-08-02T00:45:59.114Z,99.90
2022-08-02T00:48:49.956Z,99.90
2022-08-02T00:51:36.091Z,99.90
2022-08-02T00:54:21.584Z,99.90
2022-08-02T00:57:07.171Z,99.90
2022-08-02T00:59:52.810Z,99.90
2022-08-02T01:02:38.347Z,99.90
2022-08-02T01:05:23.945Z,99.90
2022-08-02T01:08:09.904Z,99.90
2022-08-02T01:10:55.657Z,99.90
2022-08-02T01:13:43.455Z,99.90
2022-08-02T01:16:32.157Z,99.90
2022-08-02T01:19:33.428Z,99.90
2022-08-02T01:23:00.628Z,99.90
2022-08-02T01:26:20.638Z,99.90
2022-08-02T01:29:15.497Z,99.90
2022-08-02T01:32:07.305Z,99.90
2022-08-02T01:34:59.959Z,99.90
2022-08-02T01:38:11.813Z,99.90
2022-08-02T01:40:59.943Z,99.90
2022-08-02T01:43:47.901Z,99.90
2022-08-02T01:46:34.824Z,99.90
2022-08-02T01:49:23.114Z,99.90
2022-08-02T01:52:21.537Z,99.90
2022-08-02T01:55:18.795Z,99.90
2022-08-02T01:58:07.324Z,99.90
2022-08-02T02:00:56.601Z,99.90
2022-08-02T02:03:44.165Z,99.90
2022-08-02T02:06:31.136Z,99.90
2022-08-02T02:09:18.243Z,99.90
2022-08-02T02:12:13.458Z,99.90
2022-08-02T02:15:01.343Z,99.90
2022-08-02T02:17:52.058Z,99.90
2022-08-02T02:20:56.033Z,99.90
2022-08-02T02:23:43.568Z,99.90
2022-08-02T02:26:32.076Z,99.90
2022-08-02T02:29:21.868Z,99.90
2022-08-02T02:32:07.838Z,99.90
2022-08-02T02:34:54.737Z,99.90
2022-08-02T02:37:41.801Z,99.90
2022-08-02T02:40:29.635Z,99.90
2022-08-02T02:43:17.314Z,99.90
2022-08-02T02:46:05.317Z,99.90
2022-08-02T02:48:52.366Z,99.90
2022-08-02T02:51:40.666Z,99.90
2022-08-02T02:54:34.483Z,99.90
2022-08-02T02:57:22.217Z,99.90
2022-08-02T03:00:10.890Z,99.90
2022-08-02T03:02:57.263Z,99.90
2022-08-02T03:05:43.081Z,99.90
2022-08-02T03:08:29.121Z,99.90
2022-08-02T03:11:15.580Z,99.90
2022-08-02T03:14:03.544Z,99.90
2022-08-02T03:16:51.958Z,99.90
2022-08-02T03:19:37.965Z,99.90
2022-08-02T03:22:23.744Z,99.90
2022-08-02T03:25:10.481Z,99.90
2022-08-02T03:27:56.071Z,99.90
2022-08-02T03:30:41.517Z,99.90
2022-08-02T03:33:27.880Z,99.90
2022-08-02T03:36:16.668Z,99.90
2022-08-02T03:39:03.799Z,99.90
2022-08-02T03:41:50.180Z,99.90
2022-08-02T03:44:39.450Z,99.90
2022-08-02T03:47:25.901Z,99.90
2022-08-02T03:50:14.885Z,99.90
2022-08-02T03:53:02.354Z,99.90
2022-08-02T03:55:49.065Z,99.90
2022-08-02T03:58:35.065Z,99.90
2022-08-02T04:01:20.878Z,99.90
2022-08-02T04:04:07.333Z,99.90
2022-08-02T04:06:53.065Z,99.90
2022-08-02T04:09:38.785Z,99.90
2022-08-02T04:12:24.476Z,99.90
2022-08-02T04:15:13.973Z,99.90
2022-08-02T04:18:02.867Z,99.90
2022-08-02T04:20:51.590Z,99.90
2022-08-02T04:23:37.892Z,99.90
2022-08-02T04:26:28.315Z,99.90
2022-08-02T04:29:14.998Z,99.90
2022-08-02T04:32:01.498Z,99.90
2022-08-02T04:35:17.741Z,99.90
2022-08-02T04:38:09.784Z,99.90
2022-08-02T04:40:56.396Z,99.90
2022-08-02T04:43:42.102Z,99.90
2022-08-02T04:46:27.796Z,99.90
2022-08-02T04:49:13.775Z,99.90
2022-08-02T04:52:01.098Z,99.90
2022-08-02T04:54:47.237Z,99.90
2022-08-02T04:57:52.836Z,99.90
2022-08-02T05:00:38.864Z,99.90
2022-08-02T05:03:24.361Z,99.90
2022-08-02T05:06:18.846Z,99.90
2022-08-02T05:09:05.553Z,99.90
2022-08-02T05:11:54.914Z,99.90
2022-08-02T05:14:40.648Z,99.90
2022-08-02T05:17:26.435Z,99.90
2022-08-02T05:20:15.117Z,99.90
2022-08-02T05:23:00.912Z,99.90
2022-08-02T05:25:46.530Z,99.90
2022-08-02T05:28:32.090Z,99.90
2022-08-02T05:31:22.529Z,99.90
2022-08-02T05:34:11.826Z,99.90
2022-08-02T05:36:57.866Z,99.90
2022-08-02T05:39:55.653Z,99.90
2022-08-02T05:42:42.424Z,99.90
2022-08-02T05:45:28.293Z,99.90
2022-08-02T05:48:14.150Z,99.90
2022-08-02T05:51:05.299Z,99.90
2022-08-02T05:53:52.281Z,99.90
2022-08-02T05:56:51.117Z,99.90
2022-08-02T06:00:00.501Z,99.90
2022-08-02T06:03:38.047Z,99.90
2022-08-02T06:06:26.682Z,99.90
2022-08-02T06:09:23.313Z,99.90
2022-08-02T06:12:17.007Z,99.90
2022-08-02T06:15:04.817Z,99.90
2022-08-02T06:17:50.904Z,99.90
2022-08-02T06:20:38.002Z,99.90
2022-08-02T06:23:25.900Z,99.90
2022-08-02T06:26:13.449Z,99.90
2022-08-02T06:28:59.324Z,99.90
2022-08-02T06:31:45.399Z,99.90
2022-08-02T06:34:31.153Z,99.90
2022-08-02T06:37:44.294Z,99.90
2022-08-02T06:40:35.849Z,99.90
2022-08-02T06:43:46.968Z,99.90
2022-08-02T06:47:09.643Z,99.90
2022-08-02T06:49:52.977Z,99.90
2022-08-02T06:52:39.884Z,99.90
2022-08-02T06:55:25.326Z,99.90
2022-08-02T06:58:11.805Z,99.90
2022-08-02T07:00:57.757Z,99.90
2022-08-02T07:03:43.568Z,99.90
2022-08-02T07:06:29.332Z,99.90
2022-08-02T07:09:20.882Z,99.90
2022-08-02T07:12:07.368Z,99.90
2022-08-02T07:14:53.283Z,99.90
2022-08-02T07:17:39.046Z,99.90
2022-08-02T07:20:25.024Z,99.90
2022-08-02T07:23:10.953Z,99.90
2022-08-02T07:26:02.396Z,99.90
2022-08-02T07:28:48.944Z,99.90
2022-08-02T07:31:34.589Z,99.90
2022-08-02T07:34:20.063Z,99.90
2022-08-02T07:37:05.692Z,99.90
2022-08-02T07:39:54.629Z,99.90
2022-08-02T07:42:40.288Z,99.90
2022-08-02T07:45:27.090Z,99.90
2022-08-02T07:48:12.742Z,99.90
2022-08-02T07:50:58.130Z,99.90
2022-08-02T07:53:50.603Z,99.90
2022-08-02T07:56:47.795Z,99.90
2022-08-02T07:59:43.077Z,99.90
2022-08-02T08:02:28.712Z,99.90
2022-08-02T08:05:14.486Z,99.90
2022-08-02T08:08:00.251Z,99.90
2022-08-02T08:10:47.025Z,99.90
2022-08-02T08:13:32.784Z,99.90
2022-08-02T08:16:18.797Z,99.90
2022-08-02T08:19:04.432Z,99.90
2022-08-02T08:21:50.179Z,99.90
2022-08-02T08:24:35.646Z,99.90
2022-08-02T08:27:22.686Z,99.90
2022-08-02T08:30:09.353Z,99.90
2022-08-02T08:32:54.723Z,99.90
2022-08-02T08:35:40.443Z,99.90
2022-08-02T08:38:28.080Z,99.90
2022-08-02T08:41:16.813Z,99.90
2022-08-02T08:44:02.820Z,99.90
2022-08-02T08:46:50.125Z,99.90
2022-08-02T08:49:52.757Z,99.90
2022-08-02T08:53:07.435Z,99.90
2022-08-02T08:55:56.421Z,99.90
2022-08-02T08:58:43.352Z,99.90
2022-08-02T09:01:49.829Z,99.90
2022-08-02T09:04:35.528Z,99.90
2022-08-02T09:07:21.054Z,99.90
2022-08-02T09:10:32.224Z,99.90
2022-08-02T09:13:37.898Z,99.90
2022-08-02T09:16:30.291Z,99.90
2022-08-02T09:19:21.436Z,99.90
2022-08-02T09:22:09.210Z,99.90
2022-08-02T09:24:55.455Z,99.90
2022-08-02T09:27:41.101Z,99.90
2022-08-02T09:30:27.953Z,99.90
2022-08-02T09:33:25.561Z,99.90
2022-08-02T09:36:13.450Z,99.90
2022-08-02T09:39:03.210Z,99.90
2022-08-02T09:41:49.062Z,99.90
2022-08-02T09:44:34.864Z,99.90
2022-08-02T09:47:20.404Z,99.90
2022-08-02T09:50:06.465Z,99.90
2022-08-02T09:52:52.017Z,99.90
2022-08-02T09:55:37.618Z,99.90
2022-08-02T09:58:23.464Z,99.90
2022-08-02T10:01:09.773Z,99.90
2022-08-02T10:04:04.127Z,99.90
2022-08-02T10:06:51.686Z,99.90
2022-08-02T10:09:42.844Z,99.90
2022-08-02T10:12:32.417Z,99.90
2022-08-02T10:15:18.493Z,99.90
2022-08-02T10:18:28.824Z,99.90
2022-08-02T10:21:19.533Z,99.90
2022-08-02T10:24:08.836Z,99.90
2022-08-02T10:26:55.741Z,99.90
2022-08-02T10:29:50.493Z,99.90
2022-08-02T10:32:44.075Z,99.90
2022-08-02T10:35:33.844Z,99.90
2022-08-02T10:38:20.225Z,99.90
2022-08-02T10:41:08.004Z,99.90
2022-08-02T10:43:54.097Z,99.90
2022-08-02T10:46:39.818Z,99.90
2022-08-02T10:49:40.974Z,99.90
2022-08-02T10:52:28.902Z,99.90
2022-08-02T10:55:22.067Z,99.90
2022-08-02T10:58:18.248Z,99.90
2022-08-02T11:01:06.241Z,99.90
2022-08-02T11:03:59.513Z,99.90
2022-08-02T11:07:11.704Z,99.90
2022-08-02T11:09:59.339Z,99.90
2022-08-02T11:13:04.832Z,99.90
2022-08-02T11:16:01.351Z,99.90
2022-08-02T11:18:52.885Z,99.90
2022-08-02T11:21:38.366Z,99.90
2022-08-02T11:24:27.286Z,99.90
2022-08-02T11:27:21.910Z,99.90
2022-08-02T11:30:13.093Z,99.90
2022-08-02T11:32:59.887Z,99.90
2022-08-02T11:35:46.011Z,99.90
2022-08-02T11:38:32.142Z,99.90
2022-08-02T11:41:46.650Z,99.90
2022-08-02T11:44:29.823Z,99.90
2022-08-02T11:47:15.852Z,99.90
2022-08-02T11:50:09.496Z,99.90
2022-08-02T11:52:55.327Z,99.60
2022-08-02T11:55:40.784Z,99.00
2022-08-02T11:58:26.449Z,98.60
2022-08-02T12:01:11.855Z,98.30
2022-08-02T12:04:00.897Z,98.30
2022-08-02T12:06:56.247Z,98.20
2022-08-02T12:09:42.570Z,97.90
2022-08-02T12:12:28.441Z,97.70
2022-08-02T12:15:13.867Z,97.40
2022-08-02T12:18:18.514Z,97.00
2022-08-02T12:21:20.705Z,96.80
2022-08-02T12:24:06.590Z,96.70
2022-08-02T12:26:52.416Z,96.70
2022-08-02T12:29:58.724Z,96.40
2022-08-02T12:32:45.498Z,95.90
2022-08-02T12:35:31.161Z,95.70
2022-08-02T12:38:17.220Z,95.50
2022-08-02T12:41:30.936Z,95.50
2022-08-02T12:44:19.818Z,95.50
2022-08-02T12:47:12.018Z,95.00
2022-08-02T12:50:13.343Z,94.60
2022-08-02T12:53:13.457Z,94.00
2022-08-02T12:56:03.338Z,93.30
2022-08-02T12:58:51.244Z,92.70
2022-08-02T13:01:37.860Z,92.60
2022-08-02T13:04:23.264Z,92.10
2022-08-02T13:07:11.000Z,91.30
2022-08-02T13:10:02.697Z,91.00
2022-08-02T13:12:49.637Z,90.60
2022-08-02T13:15:50.199Z,90.30
2022-08-02T13:18:37.429Z,89.90
2022-08-02T13:21:40.040Z,88.10
2022-08-02T13:24:41.134Z,88.10
2022-08-02T13:27:34.050Z,87.60
2022-08-02T13:30:20.321Z,86.90
2022-08-02T13:33:06.077Z,87.60
2022-08-02T13:35:51.691Z,86.90
2022-08-02T13:38:37.085Z,87.40
2022-08-02T13:41:22.637Z,86.40
2022-08-02T13:44:10.799Z,87.30
2022-08-02T13:46:56.738Z,87.30
2022-08-02T13:49:51.326Z,87.20
2022-08-02T13:52:37.861Z,86.30
2022-08-02T13:55:24.351Z,86.00
2022-08-02T13:58:10.317Z,83.70
2022-08-02T14:00:56.189Z,83.60
2022-08-02T14:04:07.669Z,82.10
2022-08-02T14:06:47.197Z,81.20
2022-08-02T14:09:33.552Z,79.10
2022-08-02T14:12:19.593Z,78.10
2022-08-02T14:15:05.534Z,75.90
2022-08-02T14:17:51.152Z,74.70
2022-08-02T14:20:38.824Z,73.90
2022-08-02T14:23:49.626Z,72.40
2022-08-02T14:26:30.384Z,72.10
2022-08-02T14:29:17.246Z,70.90
2022-08-02T14:32:03.081Z,70.30
2022-08-02T14:34:48.604Z,69.80
2022-08-02T14:37:34.804Z,68.30
2022-08-02T14:40:31.499Z,67.30
2022-08-02T14:43:35.732Z,66.60
2022-08-02T14:46:21.092Z,65.80
2022-08-02T14:49:07.791Z,65.40
2022-08-02T14:51:56.324Z,65.30
2022-08-02T14:54:43.169Z,65.50
2022-08-02T14:57:28.815Z,64.60
2022-08-02T15:00:17.228Z,64.20
2022-08-02T15:03:02.706Z,64.60
2022-08-02T15:05:48.183Z,64.60
2022-08-02T15:08:34.845Z,64.30
2022-08-02T15:11:20.356Z,64.00
2022-08-02T15:14:06.024Z,63.50
2022-08-02T15:16:59.110Z,63.00
2022-08-02T15:19:57.790Z,62.90
2022-08-02T15:22:46.438Z,63.10
2022-08-02T15:25:41.113Z,63.00
2022-08-02T15:28:29.611Z,62.80
2022-08-02T15:31:22.377Z,63.20
2022-08-02T15:34:18.608Z,63.20
2022-08-02T15:37:04.545Z,64.00
2022-08-02T15:39:49.991Z,63.70
2022-08-02T15:42:35.483Z,63.80
2022-08-02T15:45:21.212Z,64.00
2022-08-02T15:48:07.471Z,64.00
2022-08-02T15:50:53.381Z,64.10
2022-08-02T15:53:38.828Z,64.40
2022-08-02T15:56:24.574Z,64.70
2022-08-02T15:59:10.295Z,64.90
2022-08-02T16:01:56.253Z,65.30
2022-08-02T16:04:41.954Z,65.60
2022-08-02T16:07:27.742Z,66.10
2022-08-02T16:10:13.753Z,66.50
2022-08-02T16:13:19.049Z,66.80
2022-08-02T16:16:05.216Z,67.20
2022-08-02T16:18:51.112Z,67.60
2022-08-02T16:21:36.798Z,68.40
2022-08-02T16:24:22.852Z,69.10
2022-08-02T16:27:08.751Z,70.10
2022-08-02T16:29:54.560Z,71.00
2022-08-02T16:32:40.461Z,71.90
2022-08-02T16:35:27.437Z,72.60
2022-08-02T16:38:12.926Z,73.00
2022-08-02T16:41:01.557Z,74.40
2022-08-02T16:43:47.441Z,75.30
2022-08-02T16:46:32.979Z,76.20
2022-08-02T16:50:07.208Z,77.10
2022-08-02T16:52:24.398Z,78.10
2022-08-02T16:55:11.105Z,78.70
2022-08-02T16:57:57.248Z,79.30
2022-08-02T17:00:46.452Z,79.80
2022-08-02T17:03:55.445Z,80.40
2022-08-02T17:06:38.574Z,80.80
2022-08-02T17:10:04.658Z,81.30
2022-08-02T17:12:33.148Z,81.70
2022-08-02T17:16:15.901Z,82.10
2022-08-02T17:18:26.501Z,82.40
2022-08-02T17:21:12.381Z,82.70
2022-08-02T17:24:07.827Z,83.00
2022-08-02T17:26:54.249Z,83.00
2022-08-02T17:29:42.079Z,83.30
2022-08-02T17:32:29.305Z,83.50
2022-08-02T17:35:15.505Z,83.60
2022-08-02T17:38:26.619Z,83.70
2022-08-02T17:41:15.244Z,83.80
2022-08-02T17:44:00.912Z,83.90
2022-08-02T17:46:47.715Z,84.00
2022-08-02T17:49:33.441Z,84.10
2022-08-02T17:52:51.145Z,83.90
2022-08-02T17:55:27.616Z,84.20
2022-08-02T17:58:16.818Z,85.10
2022-08-02T18:01:23.668Z,84.80
2022-08-02T18:04:10.340Z,85.50
2022-08-02T18:07:03.825Z,85.60
2022-08-02T18:09:50.222Z,86.60
2022-08-02T18:12:40.353Z,86.40
2022-08-02T18:15:26.487Z,86.40
2022-08-02T18:18:14.822Z,87.10
2022-08-02T18:21:15.877Z,87.60
2022-08-02T18:24:07.565Z,87.60
2022-08-02T18:26:53.395Z,88.10
2022-08-02T18:29:39.149Z,88.30
2022-08-02T18:33:01.115Z,88.20
2022-08-02T18:35:30.434Z,88.30
2022-08-02T18:38:16.148Z,88.80
2022-08-02T18:41:05.743Z,88.70
2022-08-02T18:43:58.688Z,88.90
2022-08-02T18:46:46.530Z,88.70
2022-08-02T18:49:46.832Z,89.20
2022-08-02T18:52:37.892Z,90.00
2022-08-02T18:56:00.279Z,90.30
2022-08-02T18:58:32.456Z,90.50
2022-08-02T19:04:27.043Z,91.00
2022-08-02T19:07:13.786Z,91.20
2022-08-02T19:10:00.175Z,91.50
2022-08-02T19:12:46.196Z,91.70
2022-08-02T19:15:38.438Z,92.00
2022-08-02T19:18:27.045Z,92.40
2022-08-02T19:21:16.068Z,92.50
2022-08-02T19:24:01.728Z,92.70
2022-08-02T19:26:51.655Z,93.50
2022-08-02T19:29:43.339Z,93.90
2022-08-02T19:32:40.743Z,94.10
2022-08-02T19:36:01.197Z,93.80
2022-08-02T19:38:49.086Z,94.20
2022-08-02T19:41:43.805Z,94.50
2022-08-02T19:44:32.214Z,94.90
2022-08-02T19:47:19.191Z,95.20
2022-08-02T19:50:05.911Z,94.80
2022-08-02T19:52:55.163Z,95.50
2022-08-02T19:56:00.656Z,95.30
2022-08-02T19:58:46.598Z,95.40
2022-08-02T20:01:38.182Z,95.70
2022-08-02T20:04:25.891Z,96.10
2022-08-02T20:07:11.663Z,96.60
2022-08-02T20:10:11.285Z,97.30
2022-08-02T20:12:57.217Z,97.20
2022-08-02T20:15:56.599Z,97.40
2022-08-02T20:18:42.649Z,97.60
2022-08-02T20:21:34.086Z,97.90
2022-08-02T20:24:22.656Z,98.10
2022-08-02T20:27:16.590Z,98.30
2022-08-02T20:30:03.078Z,98.40
2022-08-02T20:32:52.687Z,98.40
2022-08-02T20:35:40.110Z,98.50
2022-08-02T20:38:31.765Z,98.90
2022-08-02T20:41:21.380Z,99.20
2022-08-02T20:44:15.379Z,99.70
2022-08-02T20:47:02.045Z,99.90
2022-08-02T20:50:06.577Z,99.90
2022-08-02T20:52:53.508Z,99.90
2022-08-02T20:55:44.031Z,99.90
2022-08-02T20:58:29.452Z,99.90
2022-08-02T21:01:16.417Z,99.90
2022-08-02T21:04:02.602Z,99.90
2022-08-02T21:06:50.759Z,99.90
2022-08-02T21:09:52.827Z,99.90
2022-08-02T21:12:39.931Z,99.90
2022-08-02T21:15:31.154Z,99.90
2022-08-02T21:18:27.409Z,99.90
2022-08-02T21:21:19.651Z,99.90
2022-08-02T21:24:05.573Z,99.90
2022-08-02T21:26:51.066Z,99.90
2022-08-02T21:29:38.069Z,99.90
2022-08-02T21:32:23.850Z,99.90
2022-08-02T21:35:10.850Z,99.90
2022-08-02T21:37:58.016Z,99.90
2022-08-02T21:41:01.948Z,99.90
2022-08-02T21:43:47.485Z,99.90
2022-08-02T21:46:33.194Z,99.90
2022-08-02T21:49:41.195Z,99.90
2022-08-02T21:52:28.938Z,99.90
2022-08-02T21:55:14.931Z,99.90
2022-08-02T21:58:00.796Z,99.90
2022-08-02T22:00:46.993Z,99.90
2022-08-02T22:03:33.088Z,99.90
2022-08-02T22:06:18.926Z,99.90
2022-08-02T22:09:17.636Z,99.90
2022-08-02T22:12:06.517Z,99.90
2022-08-02T22:14:56.743Z,99.90
2022-08-02T22:17:51.750Z,99.90
2022-08-02T22:20:39.330Z,99.90
2022-08-02T22:23:38.693Z,99.90
2022-08-02T22:26:32.068Z,99.90
2022-08-02T22:29:17.784Z,99.90
2022-08-02T22:32:03.549Z,99.90
2022-08-02T22:34:51.866Z,99.90
2022-08-02T22:38:14.936Z,99.90
2022-08-02T22:40:43.613Z,99.90
2022-08-02T22:43:31.382Z,99.90
2022-08-02T22:46:19.882Z,99.90
2022-08-02T22:49:36.120Z,99.90
2022-08-02T22:52:20.162Z,99.90
2022-08-02T22:55:07.265Z,99.90
2022-08-02T22:57:57.050Z,99.90
2022-08-02T22:58:58.939Z,90.60
2022-08-02T23:00:43.000Z,99.90
2022-08-02T23:03:28.565Z,99.90
2022-08-02T23:06:14.452Z,99.90
2022-08-02T23:09:00.292Z,99.90
2022-08-02T23:11:45.684Z,99.90
2022-08-02T23:14:31.391Z,99.90
2022-08-02T23:17:36.116Z,99.90
2022-08-02T23:20:21.927Z,99.90
2022-08-02T23:23:11.889Z,99.90
2022-08-02T23:25:57.525Z,99.90
2022-08-02T23:28:42.845Z,99.90
2022-08-02T23:31:38.078Z,99.90
2022-08-02T23:34:23.911Z,99.90
2022-08-02T23:37:09.875Z,99.90
2022-08-02T23:39:55.395Z,99.90
2022-08-02T23:42:40.939Z,99.90
2022-08-02T23:45:26.485Z,99.90
2022-08-02T23:48:21.620Z,99.90
2022-08-02T23:51:07.135Z,99.90
2022-08-02T23:53:52.529Z,99.90
2022-08-02T23:56:39.097Z,99.90
2022-08-02T23:59:24.767Z,99.90
